Time,TemperatureF,DewpointF,PressureIn,WindDirection,WindDirectionDegrees,WindSpeedMPH,WindSpeedGustMPH,Humidity,HourlyPrecipIn,Conditions,Clouds,dailyrainin,SoftwareType,DateUTC
2013-02-10 00:01:00,29.0,23.0,29.82,ENE,74,7.0,9.0,79,0.00,,,0.05,,2013-02-10 06:01:00,
2013-02-10 00:11:00,29.0,23.0,29.82,ENE,74,7.0,9.0,79,0.00,,,0.05,,2013-02-10 06:11:00,
2013-02-10 00:21:00,29.0,24.0,29.82,ENE,74,7.0,10.0,80,0.00,,,0.05,,2013-02-10 06:21:00,
2013-02-10 00:32:00,29.0,24.0,29.81,ENE,78,6.0,9.0,80,0.00,,,0.05,,2013-02-10 06:32:00,
2013-02-10 00:42:00,29.0,24.0,29.81,ENE,78,6.0,9.0,80,0.00,,,0.05,,2013-02-10 06:42:00,
2013-02-10 00:51:00,30.0,25.0,29.81,ESE,112,7.0,10.0,80,0.00,,,0.05,,2013-02-10 06:51:00,
2013-02-10 01:01:00,30.0,25.0,29.81,ESE,112,7.0,10.0,80,0.00,,,0.05,,2013-02-10 07:01:00,
2013-02-10 01:11:00,30.0,25.0,29.81,ESE,112,7.0,10.0,80,0.00,,,0.05,,2013-02-10 07:11:00,
2013-02-10 01:21:00,30.0,25.0,29.79,ESE,103,7.0,10.0,80,0.00,,,0.05,,2013-02-10 07:21:00,
2013-02-10 01:31:00,30.0,25.0,29.79,East,97,7.0,10.0,80,0.00,,,0.05,,2013-02-10 07:31:00,
2013-02-10 01:41:00,30.0,25.0,29.79,East,97,7.0,10.0,80,0.00,,,0.05,,2013-02-10 07:41:00,
2013-02-10 01:51:00,30.0,25.0,29.78,ESE,108,9.0,11.0,80,0.00,,,0.05,,2013-02-10 07:51:00,
2013-02-10 02:01:00,30.0,25.0,29.78,ESE,110,10.0,12.0,80,0.00,,,0.05,,2013-02-10 08:01:00,
2013-02-10 02:11:00,30.0,25.0,29.78,ESE,110,10.0,12.0,80,0.00,,,0.05,,2013-02-10 08:11:00,
2013-02-10 02:21:00,30.0,25.0,29.77,East,99,9.0,13.0,80,0.00,,,0.05,,2013-02-10 08:21:00,
2013-02-10 02:32:00,29.0,24.0,29.76,East,98,10.0,13.0,80,0.00,,,0.05,,2013-02-10 08:32:00,
2013-02-10 02:43:00,29.0,24.0,29.76,East,98,10.0,13.0,80,0.00,,,0.05,,2013-02-10 08:43:00,
2013-02-10 02:52:00,29.0,24.0,29.76,East,99,8.0,14.0,80,0.00,,,0.05,,2013-02-10 08:52:00,
2013-02-10 03:02:00,29.0,24.0,29.75,ESE,104,9.0,11.0,80,0.00,,,0.05,,2013-02-10 09:02:00,
2013-02-10 03:11:00,29.0,24.0,29.75,ESE,104,9.0,11.0,80,0.00,,,0.05,,2013-02-10 09:11:00,
2013-02-10 03:21:00,29.0,24.0,29.73,East,99,11.0,15.0,80,0.00,,,0.05,,2013-02-10 09:21:00,
2013-02-10 03:32:00,29.0,24.0,29.73,East,97,10.0,14.0,80,0.00,,,0.05,,2013-02-10 09:32:00,
2013-02-10 03:41:00,29.0,24.0,29.73,East,97,10.0,14.0,80,0.00,,,0.05,,2013-02-10 09:41:00,
2013-02-10 03:51:00,28.0,23.0,29.72,ESE,103,11.0,16.0,80,0.00,,,0.05,,2013-02-10 09:51:00,
2013-02-10 04:01:00,28.0,23.0,29.71,East,88,9.0,14.0,80,0.00,,,0.05,,2013-02-10 10:01:00,
2013-02-10 04:11:00,28.0,23.0,29.71,East,88,9.0,14.0,80,0.00,,,0.05,,2013-02-10 10:11:00,
2013-02-10 04:21:00,28.0,23.0,29.70,East,97,9.0,13.0,80,0.00,,,0.05,,2013-02-10 10:21:00,
2013-02-10 04:31:00,28.0,23.0,29.69,East,96,13.0,19.0,80,0.00,,,0.05,,2013-02-10 10:31:00,
2013-02-10 04:41:00,28.0,23.0,29.69,East,96,13.0,19.0,80,0.00,,,0.05,,2013-02-10 10:41:00,
2013-02-10 04:51:00,27.0,22.0,29.70,East,98,9.0,14.0,80,0.00,,,0.05,,2013-02-10 10:51:00,
2013-02-10 05:01:00,27.0,22.0,29.68,East,101,13.0,17.0,80,0.00,,,0.05,,2013-02-10 11:01:00,
2013-02-10 05:11:00,27.0,22.0,29.68,East,101,13.0,17.0,80,0.00,,,0.05,,2013-02-10 11:11:00,
2013-02-10 05:21:00,27.0,22.0,29.68,East,99,11.0,16.0,80,0.00,,,0.05,,2013-02-10 11:21:00,
2013-02-10 05:32:00,27.0,22.0,29.69,ESE,108,10.0,14.0,80,0.00,,,0.05,,2013-02-10 11:32:00,
2013-02-10 05:42:00,27.0,22.0,29.69,ESE,108,10.0,14.0,80,0.00,,,0.05,,2013-02-10 11:42:00,
2013-02-10 05:52:00,27.0,22.0,29.68,East,101,10.0,17.0,80,0.00,,,0.05,,2013-02-10 11:52:00,
2013-02-10 06:02:00,27.0,22.0,29.67,East,100,12.0,17.0,80,0.00,,,0.05,,2013-02-10 12:02:00,
2013-02-10 06:12:00,27.0,22.0,29.67,East,100,12.0,17.0,80,0.00,,,0.05,,2013-02-10 12:12:00,
2013-02-10 06:21:00,27.0,22.0,29.66,ENE,73,12.0,17.0,80,0.00,,,0.05,,2013-02-10 12:21:00,
2013-02-10 06:32:00,27.0,22.0,29.65,NE,50,12.0,16.0,80,0.00,,,0.05,,2013-02-10 12:32:00,
2013-02-10 06:42:00,27.0,22.0,29.65,NE,50,12.0,16.0,80,0.00,,,0.05,,2013-02-10 12:42:00,
2013-02-10 06:52:00,27.0,22.0,29.63,ENE,65,10.0,15.0,80,0.00,,,0.05,,2013-02-10 12:52:00,
2013-02-10 07:02:00,27.0,22.0,29.62,ENE,70,7.0,12.0,80,0.00,,,0.05,,2013-02-10 13:02:00,
2013-02-10 07:11:00,27.0,22.0,29.62,ENE,70,7.0,12.0,80,0.00,,,0.05,,2013-02-10 13:11:00,
2013-02-10 07:21:00,27.0,22.0,29.65,ENE,77,11.0,14.0,80,0.00,,,0.05,,2013-02-10 13:21:00,
2013-02-10 07:31:00,27.0,22.0,29.64,East,83,11.0,17.0,80,0.00,,,0.05,,2013-02-10 13:31:00,
2013-02-10 07:41:00,27.0,22.0,29.64,East,83,11.0,17.0,80,0.00,,,0.05,,2013-02-10 13:41:00,
2013-02-10 07:51:00,27.0,22.0,29.63,ENE,61,12.0,17.0,80,0.00,,,0.05,,2013-02-10 13:51:00,
2013-02-10 08:02:00,26.0,20.0,29.61,ENE,66,12.0,16.0,79,0.00,,,0.05,,2013-02-10 14:02:00,
2013-02-10 08:11:00,26.0,20.0,29.61,ENE,66,12.0,16.0,79,0.00,,,0.05,,2013-02-10 14:11:00,
2013-02-10 08:21:00,26.0,20.0,29.60,ENE,67,8.0,16.0,79,0.00,,,0.05,,2013-02-10 14:21:00,
2013-02-10 08:32:00,26.0,20.0,29.60,ENE,69,9.0,15.0,79,0.00,,,0.05,,2013-02-10 14:32:00,
2013-02-10 08:41:00,26.0,20.0,29.60,ENE,69,9.0,15.0,79,0.00,,,0.05,,2013-02-10 14:41:00,
2013-02-10 08:52:00,26.0,21.0,29.62,ENE,72,11.0,17.0,80,0.00,,,0.05,,2013-02-10 14:52:00,
2013-02-10 09:02:00,26.0,21.0,29.60,ENE,68,11.0,16.0,80,0.00,,,0.05,,2013-02-10 15:02:00,
2013-02-10 09:11:00,26.0,21.0,29.60,ENE,68,11.0,16.0,80,0.00,,,0.05,,2013-02-10 15:11:00,
2013-02-10 09:21:00,26.0,21.0,29.60,ENE,73,11.0,16.0,80,0.00,,,0.05,,2013-02-10 15:21:00,
2013-02-10 09:32:00,26.0,21.0,29.59,ENE,69,10.0,16.0,80,0.00,,,0.05,,2013-02-10 15:32:00,
2013-02-10 09:42:00,26.0,21.0,29.59,ENE,69,10.0,16.0,80,0.00,,,0.05,,2013-02-10 15:42:00,
2013-02-10 09:52:00,26.0,21.0,29.58,East,80,9.0,13.0,80,0.00,,,0.05,,2013-02-10 15:52:00,
2013-02-10 10:02:00,26.0,21.0,29.59,ENE,73,11.0,19.0,80,0.00,,,0.05,,2013-02-10 16:02:00,
2013-02-10 10:11:00,26.0,21.0,29.57,ENE,63,12.0,19.0,80,0.00,,,0.05,,2013-02-10 16:11:00,
2013-02-10 10:22:00,26.0,21.0,29.57,ENE,63,12.0,19.0,80,0.00,,,0.05,,2013-02-10 16:22:00,
2013-02-10 10:32:00,26.0,21.0,29.57,ENE,69,12.0,21.0,80,0.00,,,0.05,,2013-02-10 16:32:00,
2013-02-10 10:42:00,26.0,20.0,29.55,ENE,69,10.0,19.0,79,0.00,,,0.05,,2013-02-10 16:42:00,
2013-02-10 10:52:00,26.0,20.0,29.55,ENE,69,10.0,19.0,79,0.00,,,0.05,,2013-02-10 16:52:00,
2013-02-10 11:01:00,26.0,20.0,29.54,ENE,62,13.0,22.0,79,0.00,,,0.05,,2013-02-10 17:01:00,
2013-02-10 11:11:00,26.0,20.0,29.54,ENE,62,13.0,22.0,79,0.00,,,0.05,,2013-02-10 17:11:00,
2013-02-10 11:21:00,26.0,20.0,29.54,NE,56,13.0,18.0,79,0.00,,,0.05,,2013-02-10 17:21:00,
2013-02-10 11:32:00,26.0,20.0,29.54,ENE,77,12.0,22.0,79,0.00,,,0.05,,2013-02-10 17:32:00,
2013-02-10 11:42:00,26.0,20.0,29.53,NNE,28,10.0,15.0,79,0.00,,,0.05,,2013-02-10 17:42:00,
2013-02-10 11:52:00,26.0,20.0,29.53,NNE,28,10.0,15.0,79,0.00,,,0.05,,2013-02-10 17:52:00,
2013-02-10 12:02:00,26.0,20.0,29.52,ENE,71,10.0,19.0,79,0.00,,,0.05,,2013-02-10 18:02:00,
2013-02-10 12:11:00,26.0,20.0,29.51,NE,53,9.0,16.0,79,0.00,,,0.05,,2013-02-10 18:11:00,
2013-02-10 12:22:00,26.0,20.0,29.51,NE,53,9.0,16.0,79,0.00,,,0.05,,2013-02-10 18:22:00,
2013-02-10 12:32:00,26.0,20.0,29.49,ENE,68,7.0,15.0,79,0.00,,,0.05,,2013-02-10 18:32:00,
2013-02-10 12:42:00,26.0,20.0,29.49,ENE,68,7.0,15.0,79,0.00,,,0.05,,2013-02-10 18:42:00,
2013-02-10 12:52:00,26.0,20.0,29.49,ENE,77,9.0,13.0,79,0.00,,,0.05,,2013-02-10 18:52:00,
2013-02-10 13:02:00,26.0,20.0,29.47,ENE,72,8.0,15.0,79,0.00,,,0.05,,2013-02-10 19:02:00,
2013-02-10 13:11:00,26.0,20.0,29.47,NNE,32,7.0,15.0,79,0.00,,,0.05,,2013-02-10 19:11:00,
2013-02-10 13:22:00,26.0,20.0,29.47,NNE,32,7.0,15.0,79,0.00,,,0.05,,2013-02-10 19:22:00,
2013-02-10 13:32:00,26.0,20.0,29.47,NE,51,8.0,15.0,79,0.00,,,0.05,,2013-02-10 19:32:00,
2013-02-10 13:42:00,26.0,20.0,29.46,NE,51,9.0,16.0,79,0.00,,,0.03,,2013-02-10 19:42:00,
2013-02-10 13:52:00,26.0,20.0,29.46,NE,51,9.0,16.0,79,0.00,,,0.03,,2013-02-10 19:52:00,
2013-02-10 14:02:00,26.0,20.0,29.46,NNE,14,6.0,17.0,79,0.00,,,0.03,,2013-02-10 20:02:00,
2013-02-10 14:11:00,26.0,20.0,29.46,NNE,14,6.0,17.0,79,0.00,,,0.03,,2013-02-10 20:11:00,
2013-02-10 14:22:00,26.0,20.0,29.46,North,5,4.0,12.0,79,0.00,,,0.03,,2013-02-10 20:22:00,
2013-02-10 14:32:00,26.0,20.0,29.46,NE,36,4.0,11.0,79,0.00,,,0.03,,2013-02-10 20:32:00,
2013-02-10 14:42:00,26.0,20.0,29.46,NE,48,4.0,12.0,79,0.00,,,0.02,,2013-02-10 20:42:00,
2013-02-10 14:52:00,26.0,20.0,29.46,NE,48,4.0,12.0,79,0.00,,,0.02,,2013-02-10 20:52:00,
2013-02-10 15:02:00,26.0,20.0,29.46,WNW,286,3.0,10.0,79,0.00,,,0.02,,2013-02-10 21:02:00,
2013-02-10 15:11:00,26.0,20.0,29.46,WNW,286,3.0,10.0,79,0.00,,,0.02,,2013-02-10 21:11:00,
2013-02-10 15:21:00,26.0,20.0,29.46,North,351,2.0,11.0,79,0.00,,,0.02,,2013-02-10 21:21:00,
2013-02-10 15:32:00,26.0,20.0,29.47,WNW,292,3.0,9.0,79,0.00,,,0.02,,2013-02-10 21:32:00,
2013-02-10 15:42:00,26.0,20.0,29.47,SW,219,1.0,6.0,79,0.00,,,0.01,,2013-02-10 21:42:00,
2013-02-10 15:51:00,26.0,20.0,29.47,SW,219,1.0,6.0,79,0.00,,,0.01,,2013-02-10 21:51:00,
2013-02-10 16:02:00,26.0,20.0,29.47,NW,326,4.0,9.0,79,0.00,,,0.01,,2013-02-10 22:02:00,
2013-02-10 16:11:00,25.0,19.0,29.47,North,350,4.0,10.0,79,0.00,,,0.01,,2013-02-10 22:11:00,
2013-02-10 16:21:00,25.0,19.0,29.47,North,350,4.0,10.0,79,0.00,,,0.01,,2013-02-10 22:21:00,
2013-02-10 16:32:00,25.0,19.0,29.47,NW,316,6.0,13.0,79,0.00,,,0.01,,2013-02-10 22:32:00,
2013-02-10 16:42:00,25.0,19.0,29.48,WNW,286,7.0,13.0,79,0.00,,,0.00,,2013-02-10 22:42:00,
2013-02-10 16:52:00,25.0,19.0,29.48,WNW,286,7.0,13.0,79,0.00,,,0.00,,2013-02-10 22:52:00,
2013-02-10 17:02:00,25.0,19.0,29.48,NW,317,7.0,16.0,79,0.00,,,0.00,,2013-02-10 23:02:00,
2013-02-10 17:11:00,25.0,19.0,29.48,NW,317,7.0,16.0,79,0.00,,,0.00,,2013-02-10 23:11:00,
2013-02-10 17:22:00,25.0,19.0,29.49,WNW,299,7.0,13.0,79,0.00,,,0.00,,2013-02-10 23:22:00,
2013-02-10 17:32:00,25.0,19.0,29.49,West,264,8.0,16.0,79,0.00,,,0.00,,2013-02-10 23:32:00,
2013-02-10 17:42:00,25.0,19.0,29.50,NNW,340,8.0,17.0,79,0.00,,,0.00,,2013-02-10 23:42:00,
2013-02-10 17:52:00,25.0,19.0,29.50,NNW,340,8.0,17.0,79,0.00,,,0.00,,2013-02-10 23:52:00,
2013-02-10 18:02:00,25.0,19.0,29.50,NNW,339,8.0,18.0,79,0.00,,,0.00,,2013-02-11 00:02:00,
2013-02-10 18:11:00,25.0,19.0,29.51,North,360,10.0,19.0,79,0.00,,,0.00,,2013-02-11 00:11:00,
2013-02-10 18:22:00,25.0,19.0,29.51,North,360,10.0,19.0,79,0.00,,,0.00,,2013-02-11 00:22:00,
2013-02-10 18:32:00,25.0,19.0,29.52,NW,308,8.0,17.0,79,0.00,,,0.00,,2013-02-11 00:32:00,
2013-02-10 18:42:00,25.0,19.0,29.52,NW,308,8.0,17.0,79,0.00,,,0.00,,2013-02-11 00:42:00,
2013-02-10 18:51:00,25.0,19.0,29.52,West,280,9.0,18.0,79,0.00,,,0.00,,2013-02-11 00:51:00,
2013-02-10 19:01:00,25.0,19.0,29.52,NW,306,10.0,20.0,79,0.00,,,0.00,,2013-02-11 01:01:00,
2013-02-10 19:11:00,25.0,19.0,29.52,NW,306,10.0,20.0,79,0.00,,,0.00,,2013-02-11 01:11:00,
2013-02-10 19:21:00,25.0,19.0,29.53,NNW,335,8.0,21.0,79,0.00,,,0.00,,2013-02-11 01:21:00,
2013-02-10 19:32:00,25.0,19.0,29.53,NW,309,8.0,19.0,79,0.00,,,0.00,,2013-02-11 01:32:00,
2013-02-10 19:41:00,25.0,19.0,29.54,WNW,300,10.0,23.0,79,0.00,,,0.00,,2013-02-11 01:41:00,
2013-02-10 19:52:00,25.0,19.0,29.54,WNW,300,10.0,23.0,79,0.00,,,0.00,,2013-02-11 01:52:00,
2013-02-10 20:01:00,25.0,19.0,29.54,WNW,297,10.0,22.0,79,0.00,,,0.00,,2013-02-11 02:01:00,
2013-02-10 20:11:00,25.0,19.0,29.54,WNW,297,10.0,22.0,79,0.00,,,0.00,,2013-02-11 02:11:00,
2013-02-10 20:21:00,25.0,19.0,29.55,NW,325,12.0,23.0,79,0.00,,,0.00,,2013-02-11 02:21:00,
2013-02-10 20:32:00,25.0,19.0,29.55,NW,325,12.0,23.0,79,0.00,,,0.00,,2013-02-11 02:32:00,
2013-02-10 20:42:00,25.0,19.0,29.57,NNW,334,10.0,24.0,79,0.00,,,0.00,,2013-02-11 02:42:00,
2013-02-10 20:52:00,25.0,19.0,29.57,NNW,334,10.0,24.0,79,0.00,,,0.00,,2013-02-11 02:52:00,
2013-02-10 21:02:00,25.0,19.0,29.57,WSW,244,12.0,24.0,79,0.00,,,0.00,,2013-02-11 03:02:00,
2013-02-10 21:11:00,25.0,19.0,29.57,WSW,244,12.0,24.0,79,0.00,,,0.00,,2013-02-11 03:11:00,
2013-02-10 21:21:00,25.0,19.0,29.58,WNW,283,10.0,25.0,79,0.00,,,0.00,,2013-02-11 03:21:00,
2013-02-10 21:31:00,25.0,19.0,29.59,NNW,344,10.0,21.0,79,0.00,,,0.00,,2013-02-11 03:31:00,
2013-02-10 21:42:00,25.0,19.0,29.59,NW,309,9.0,22.0,79,0.00,,,0.00,,2013-02-11 03:42:00,
2013-02-10 21:52:00,25.0,19.0,29.59,NW,309,9.0,22.0,79,0.00,,,0.00,,2013-02-11 03:52:00,
2013-02-10 22:01:00,25.0,19.0,29.60,North,5,10.0,21.0,79,0.00,,,0.00,,2013-02-11 04:01:00,
2013-02-10 22:11:00,25.0,19.0,29.60,North,5,10.0,21.0,79,0.00,,,0.00,,2013-02-11 04:11:00,
2013-02-10 22:21:00,25.0,19.0,29.60,NNW,347,12.0,24.0,79,0.00,,,0.00,,2013-02-11 04:21:00,
2013-02-10 22:32:00,24.0,18.0,29.61,WNW,296,10.0,25.0,79,0.00,,,0.00,,2013-02-11 04:32:00,
2013-02-10 22:42:00,24.0,18.0,29.61,WNW,296,10.0,25.0,79,0.00,,,0.00,,2013-02-11 04:42:00,
2013-02-10 22:51:00,25.0,19.0,29.62,North,355,9.0,23.0,79,0.00,,,0.00,,2013-02-11 04:51:00,
2013-02-10 23:01:00,25.0,19.0,29.63,NNW,348,7.0,22.0,79,0.00,,,0.00,,2013-02-11 05:01:00,
2013-02-10 23:12:00,25.0,19.0,29.64,NW,310,6.0,19.0,79,0.00,,,0.00,,2013-02-11 05:12:00,
2013-02-10 23:22:00,25.0,19.0,29.64,NW,310,6.0,19.0,79,0.00,,,0.00,,2013-02-11 05:22:00,
2013-02-10 23:32:00,24.0,18.0,29.65,West,263,8.0,18.0,79,0.00,,,0.00,,2013-02-11 05:32:00,
2013-02-10 23:42:00,24.0,18.0,29.65,West,263,8.0,18.0,79,0.00,,,0.00,,2013-02-11 05:42:00,
2013-02-10 23:52:00,24.0,18.0,29.66,ESE,111,7.0,24.0,79,0.00,,,0.00,,2013-02-11 05:52:00,